createdAt,value
2022-10-30T00:02:32.344Z,18.40
2022-10-30T00:05:21.030Z,16.63
2022-10-30T00:08:08.086Z,18.73
2022-10-30T00:10:55.300Z,16.90
2022-10-30T00:13:44.704Z,14.68
2022-10-30T00:16:31.960Z,15.55
2022-10-30T00:19:19.030Z,12.13
2022-10-30T00:24:53.573Z,13.32
2022-10-30T00:27:40.557Z,12.63
2022-10-30T00:30:27.757Z,16.40
2022-10-30T00:33:15.000Z,13.18
2022-10-30T00:36:02.622Z,17.08
2022-10-30T00:38:51.018Z,14.93
2022-10-30T00:41:41.954Z,17.05
2022-10-30T00:44:38.559Z,13.75
2022-10-30T00:47:31.109Z,17.25
2022-10-30T00:50:22.158Z,16.30
2022-10-30T00:53:12.653Z,16.33
2022-10-30T00:56:06.417Z,20.95
2022-10-30T00:58:59.732Z,17.88
2022-10-30T01:01:47.931Z,14.88
2022-10-30T01:04:38.220Z,23.30
2022-10-30T01:07:25.673Z,19.88
2022-10-30T01:10:13.952Z,20.67
2022-10-30T01:13:03.617Z,20.90
2022-10-30T01:16:02.489Z,15.85
2022-10-30T01:18:53.881Z,18.17
2022-10-30T01:21:55.400Z,18.10
2022-10-30T01:24:51.497Z,17.85
2022-10-30T01:27:45.944Z,16.88
2022-10-30T01:30:46.472Z,15.50
2022-10-30T01:33:44.282Z,15.73
2022-10-30T01:36:37.705Z,12.65
2022-10-30T01:39:28.269Z,17.75
2022-10-30T01:42:54.574Z,19.17
2022-10-30T01:46:01.435Z,17.85
2022-10-30T01:48:58.963Z,14.40
2022-10-30T01:51:56.956Z,15.75
2022-10-30T01:54:53.220Z,15.02
2022-10-30T01:57:46.121Z,15.15
2022-10-30T02:00:33.651Z,16.80
2022-10-30T02:03:22.886Z,19.92
2022-10-30T02:06:10.532Z,17.25
2022-10-30T02:08:57.745Z,17.13
2022-10-30T02:11:46.151Z,14.65
2022-10-30T02:14:37.406Z,13.15
2022-10-30T02:17:27.193Z,13.93
2022-10-30T02:20:19.572Z,17.83
2022-10-30T02:23:08.861Z,15.25
2022-10-30T02:25:56.114Z,17.42
2022-10-30T02:28:43.354Z,17.65
2022-10-30T02:31:31.142Z,13.85
2022-10-30T02:34:18.624Z,17.08
2022-10-30T02:37:06.944Z,16.75
2022-10-30T02:39:54.034Z,14.43
2022-10-30T02:42:41.272Z,14.65
2022-10-30T02:45:28.231Z,13.52
2022-10-30T02:48:15.400Z,13.90
2022-10-30T02:51:03.231Z,15.10
2022-10-30T02:53:51.721Z,13.10
2022-10-30T02:56:40.918Z,13.45
2022-10-30T02:59:28.191Z,13.73
2022-10-30T03:02:15.966Z,15.10
2022-10-30T03:05:03.232Z,16.45
2022-10-30T03:07:51.423Z,22.25
2022-10-30T03:10:40.213Z,21.83
2022-10-30T03:13:28.515Z,22.45
2022-10-30T03:16:17.807Z,16.80
2022-10-30T03:19:05.254Z,14.30
2022-10-30T03:21:54.754Z,12.80
2022-10-30T03:24:42.341Z,17.15
2022-10-30T03:27:31.389Z,18.67
2022-10-30T03:30:18.736Z,16.40
2022-10-30T03:33:05.879Z,17.90
2022-10-30T03:35:53.468Z,16.60
2022-10-30T03:38:40.729Z,14.27
2022-10-30T03:41:29.645Z,19.33
2022-10-30T03:44:18.140Z,19.08
2022-10-30T03:47:05.420Z,19.30
2022-10-30T03:49:57.966Z,17.30
2022-10-30T03:52:44.987Z,16.27
2022-10-30T03:55:32.233Z,17.08
2022-10-30T03:58:19.610Z,15.82
2022-10-30T04:01:09.049Z,17.63
2022-10-30T04:03:59.170Z,15.27
2022-10-30T04:06:46.494Z,15.50
2022-10-30T04:09:33.722Z,15.88
2022-10-30T04:12:20.948Z,19.05
2022-10-30T04:15:09.588Z,19.30
2022-10-30T04:17:58.726Z,16.80
2022-10-30T04:20:47.326Z,14.70
2022-10-30T04:23:35.238Z,12.88
2022-10-30T04:26:22.603Z,13.63
2022-10-30T04:29:09.828Z,14.85
2022-10-30T04:31:56.969Z,15.15
2022-10-30T04:34:45.301Z,17.88
2022-10-30T04:37:32.413Z,15.00
2022-10-30T04:40:19.194Z,16.70
2022-10-30T04:43:14.947Z,14.00
2022-10-30T04:46:06.272Z,17.08
2022-10-30T04:48:53.520Z,14.75
2022-10-30T04:51:42.002Z,12.80
2022-10-30T04:54:29.132Z,13.00
2022-10-30T04:57:16.357Z,14.23
2022-10-30T05:00:05.200Z,14.02
2022-10-30T05:02:52.737Z,12.52
2022-10-30T05:05:41.126Z,15.35
2022-10-30T05:08:30.798Z,16.40
2022-10-30T05:11:20.469Z,15.45
2022-10-30T05:14:07.629Z,14.07
2022-10-30T05:16:54.801Z,14.85
2022-10-30T05:19:42.141Z,15.18
2022-10-30T05:22:29.000Z,13.15
2022-10-30T05:25:17.685Z,16.75
2022-10-30T05:28:06.822Z,13.63
2022-10-30T05:31:01.729Z,15.73
2022-10-30T05:34:09.685Z,16.63
2022-10-30T05:36:59.080Z,16.08
2022-10-30T05:39:46.447Z,18.08
2022-10-30T05:42:47.776Z,17.90
2022-10-30T05:45:35.007Z,16.10
2022-10-30T05:48:23.391Z,13.48
2022-10-30T05:51:10.573Z,19.27
2022-10-30T05:54:00.983Z,13.10
2022-10-30T05:56:49.441Z,18.40
2022-10-30T05:59:37.761Z,18.42
2022-10-30T06:02:25.266Z,14.68
2022-10-30T06:05:12.492Z,15.13
2022-10-30T06:07:59.713Z,15.77
2022-10-30T06:10:46.779Z,15.57
2022-10-30T06:13:41.240Z,14.35
2022-10-30T06:16:34.214Z,20.05
2022-10-30T06:19:33.414Z,14.77
2022-10-30T06:22:36.475Z,17.35
2022-10-30T06:25:39.349Z,15.18
2022-10-30T06:28:41.108Z,14.98
2022-10-30T06:31:28.326Z,11.30
2022-10-30T06:34:17.136Z,17.52
2022-10-30T06:37:04.062Z,14.95
2022-10-30T06:39:51.243Z,11.30
2022-10-30T06:42:57.481Z,12.35
2022-10-30T06:45:59.762Z,14.60
2022-10-30T06:48:47.577Z,15.15
2022-10-30T06:51:37.228Z,11.80
2022-10-30T06:54:24.200Z,13.80
2022-10-30T06:57:20.107Z,13.10
2022-10-30T07:00:25.867Z,12.80
2022-10-30T07:03:35.340Z,13.25
2022-10-30T07:06:22.566Z,14.57
2022-10-30T07:09:11.225Z,13.30
2022-10-30T07:12:02.683Z,15.10
2022-10-30T07:15:22.245Z,11.73
2022-10-30T07:18:24.539Z,17.00
2022-10-30T07:21:15.784Z,10.88
2022-10-30T07:24:02.701Z,13.75
2022-10-30T07:26:56.501Z,16.25
2022-10-30T07:30:17.925Z,11.60
2022-10-30T07:33:23.666Z,11.85
2022-10-30T07:36:25.077Z,12.20
2022-10-30T07:39:24.144Z,11.23
2022-10-30T07:42:26.917Z,13.60
2022-10-30T07:45:46.581Z,12.60
2022-10-30T07:48:51.604Z,10.07
2022-10-30T07:51:50.075Z,14.70
2022-10-30T07:54:38.519Z,13.23
2022-10-30T07:57:50.076Z,14.20
2022-10-30T08:00:59.558Z,11.65
2022-10-30T08:03:51.729Z,13.02
2022-10-30T08:06:47.139Z,12.88
2022-10-30T08:09:34.273Z,14.60
2022-10-30T08:12:22.723Z,10.55
2022-10-30T08:15:11.727Z,12.75
2022-10-30T08:17:58.592Z,14.23
2022-10-30T08:20:50.473Z,9.43
2022-10-30T08:23:37.868Z,11.63
2022-10-30T08:26:31.249Z,7.10
2022-10-30T08:29:18.431Z,8.35
2022-10-30T08:32:08.860Z,9.15
2022-10-30T08:35:28.193Z,12.75
2022-10-30T08:38:15.756Z,10.63
2022-10-30T08:41:04.387Z,5.82
2022-10-30T08:43:53.325Z,10.02
2022-10-30T08:46:40.180Z,9.10
2022-10-30T08:49:28.661Z,6.82
2022-10-30T08:52:18.283Z,6.90
2022-10-30T08:55:10.097Z,8.77
2022-10-30T08:57:57.683Z,8.27
2022-10-30T09:00:44.974Z,7.55
2022-10-30T09:03:51.989Z,7.28
2022-10-30T09:06:58.894Z,8.25
2022-10-30T09:10:03.702Z,9.35
2022-10-30T09:12:56.017Z,10.48
2022-10-30T09:15:44.458Z,7.28
2022-10-30T09:18:32.427Z,12.35
2022-10-30T09:21:19.649Z,5.78
2022-10-30T09:24:13.316Z,8.88
2022-10-30T09:27:00.546Z,5.78
2022-10-30T09:29:48.278Z,8.13
2022-10-30T09:32:42.239Z,6.05
2022-10-30T09:35:32.276Z,6.15
2022-10-30T09:38:19.649Z,7.57
2022-10-30T09:41:24.038Z,7.28
2022-10-30T09:44:21.964Z,10.38
2022-10-30T09:47:23.659Z,7.70
2022-10-30T09:50:26.344Z,4.82
2022-10-30T09:53:31.397Z,8.90
2022-10-30T09:56:30.571Z,6.20
2022-10-30T09:59:30.304Z,5.82
2022-10-30T10:02:34.882Z,7.85
2022-10-30T10:05:25.635Z,7.80
2022-10-30T10:08:47.177Z,7.68
2022-10-30T10:12:00.059Z,9.18
2022-10-30T10:14:49.272Z,5.95
2022-10-30T10:17:42.446Z,8.13
2022-10-30T10:20:34.045Z,9.48
2022-10-30T10:23:28.069Z,5.88
2022-10-30T10:26:30.337Z,7.35
2022-10-30T10:29:42.759Z,6.22
2022-10-30T10:33:12.802Z,8.75
2022-10-30T10:36:18.925Z,9.38
2022-10-30T10:39:18.927Z,7.55
2022-10-30T10:42:18.526Z,10.00
2022-10-30T10:45:23.780Z,7.70
2022-10-30T10:48:32.810Z,4.35
2022-10-30T10:51:23.797Z,7.72
2022-10-30T10:54:15.385Z,6.38
2022-10-30T10:57:06.278Z,7.85
2022-10-30T10:59:57.671Z,7.30
2022-10-30T11:02:52.385Z,8.80
2022-10-30T11:05:47.595Z,8.18
2022-10-30T11:08:35.352Z,6.40
2022-10-30T11:11:22.337Z,5.50
2022-10-30T11:14:14.935Z,7.40
2022-10-30T11:17:14.292Z,6.28
2022-10-30T11:20:14.363Z,5.40
2022-10-30T11:23:01.715Z,10.07
2022-10-30T11:25:49.038Z,12.80
2022-10-30T11:28:42.104Z,9.00
2022-10-30T11:31:34.730Z,4.95
2022-10-30T11:34:29.769Z,10.70
2022-10-30T11:37:31.456Z,5.15
2022-10-30T11:40:21.561Z,5.50
2022-10-30T11:43:12.746Z,5.88
2022-10-30T11:46:00.167Z,5.95
2022-10-30T11:48:54.481Z,6.80
2022-10-30T11:51:44.327Z,7.75
2022-10-30T11:54:37.566Z,6.53
2022-10-30T11:57:29.464Z,6.90
2022-10-30T12:00:19.613Z,4.32
2022-10-30T12:03:28.629Z,6.95
2022-10-30T12:06:20.318Z,6.25
2022-10-30T12:09:13.349Z,5.20
2022-10-30T12:12:10.697Z,6.28
2022-10-30T12:15:10.509Z,7.20
2022-10-30T12:18:01.556Z,5.05
2022-10-30T12:20:53.629Z,8.68
2022-10-30T12:23:41.323Z,5.75
2022-10-30T12:26:30.208Z,5.22
2022-10-30T12:29:21.963Z,7.93
2022-10-30T12:32:15.774Z,5.18
2022-10-30T12:35:09.638Z,8.57
2022-10-30T12:38:00.133Z,5.20
2022-10-30T12:41:01.155Z,9.68
2022-10-30T12:43:57.051Z,7.43
2022-10-30T12:46:49.322Z,7.78
2022-10-30T12:49:41.743Z,7.60
2022-10-30T12:52:34.388Z,4.35
2022-10-30T12:55:27.617Z,5.78
2022-10-30T12:58:23.510Z,4.97
2022-10-30T13:01:17.375Z,7.60
2022-10-30T13:04:11.581Z,8.63
2022-10-30T13:07:04.500Z,5.50
2022-10-30T13:10:03.365Z,7.90
2022-10-30T13:12:54.587Z,6.13
2022-10-30T13:15:46.649Z,6.93
2022-10-30T13:18:33.883Z,6.03
2022-10-30T13:21:29.057Z,7.03
2022-10-30T13:24:23.033Z,6.60
2022-10-30T13:27:16.571Z,9.65
2022-10-30T13:30:06.776Z,6.65
2022-10-30T13:33:05.356Z,3.97
2022-10-30T13:36:00.398Z,8.82
2022-10-30T13:38:56.074Z,5.82
2022-10-30T13:41:57.221Z,4.82
2022-10-30T13:44:54.145Z,5.68
2022-10-30T13:47:49.095Z,8.85
2022-10-30T13:50:55.663Z,8.02
2022-10-30T13:53:46.636Z,8.05
2022-10-30T13:56:36.465Z,6.15
2022-10-30T13:59:42.531Z,4.72
2022-10-30T14:02:43.155Z,3.97
2022-10-30T14:05:37.590Z,8.60
2022-10-30T14:08:34.318Z,5.53
2022-10-30T14:11:21.323Z,6.07
2022-10-30T14:14:30.043Z,4.47
2022-10-30T14:17:18.594Z,9.48
2022-10-30T14:20:28.752Z,6.03
2022-10-30T14:23:20.950Z,8.52
2022-10-30T14:26:16.060Z,8.15
2022-10-30T14:29:46.814Z,9.70
2022-10-30T14:32:40.093Z,11.00
2022-10-30T14:35:34.084Z,6.70
2022-10-30T14:38:27.044Z,7.70
2022-10-30T14:41:36.869Z,6.80
2022-10-30T14:44:57.321Z,3.97
2022-10-30T14:47:58.402Z,5.70
2022-10-30T14:50:58.267Z,9.05
2022-10-30T14:53:58.544Z,8.90
2022-10-30T14:56:48.934Z,8.80
2022-10-30T14:59:36.730Z,6.20
2022-10-30T15:02:35.976Z,6.38
2022-10-30T15:05:45.565Z,5.63
2022-10-30T15:08:59.604Z,6.38
2022-10-30T15:12:08.929Z,8.77
2022-10-30T15:14:59.101Z,9.43
2022-10-30T15:17:48.827Z,5.10
2022-10-30T15:20:39.927Z,9.43
2022-10-30T15:23:30.400Z,11.50
2022-10-30T15:26:22.235Z,12.30
2022-10-30T15:29:18.004Z,11.82
2022-10-30T15:32:15.518Z,9.30
2022-10-30T15:35:04.848Z,7.25
2022-10-30T15:38:05.823Z,8.45
2022-10-30T15:40:58.148Z,9.65
2022-10-30T15:43:45.979Z,8.13
2022-10-30T15:46:33.394Z,7.95
2022-10-30T15:49:28.244Z,10.13
2022-10-30T15:52:17.981Z,8.02
2022-10-30T15:55:10.691Z,8.40
2022-10-30T15:58:04.383Z,9.40
2022-10-30T16:01:00.295Z,12.75
2022-10-30T16:03:52.615Z,7.97
2022-10-30T16:06:39.763Z,8.30
2022-10-30T16:09:29.081Z,7.22
2022-10-30T16:12:17.514Z,10.18
2022-10-30T16:15:08.649Z,13.18
2022-10-30T16:18:07.502Z,9.30
2022-10-30T16:20:57.344Z,12.00
2022-10-30T16:23:49.911Z,15.82
2022-10-30T16:26:38.760Z,14.98
2022-10-30T16:29:28.740Z,16.48
2022-10-30T16:32:17.517Z,13.98
2022-10-30T16:35:06.409Z,16.30
2022-10-30T16:37:54.696Z,13.15
2022-10-30T16:40:41.924Z,12.00
2022-10-30T16:43:31.432Z,11.80
2022-10-30T16:46:46.765Z,8.30
2022-10-30T16:49:35.697Z,13.15
2022-10-30T16:52:26.951Z,14.27
2022-10-30T16:55:21.043Z,14.52
2022-10-30T16:58:08.116Z,11.70
2022-10-30T17:00:56.811Z,12.13
2022-10-30T17:03:45.393Z,12.32
2022-10-30T17:06:40.274Z,18.10
2022-10-30T17:09:30.114Z,16.58
2022-10-30T17:12:21.158Z,13.93
2022-10-30T17:15:14.488Z,17.05
2022-10-30T17:18:12.049Z,14.77
2022-10-30T17:21:06.786Z,25.42
2022-10-30T17:23:56.821Z,18.77
2022-10-30T17:26:43.810Z,25.73
2022-10-30T17:29:46.637Z,20.40
2022-10-30T17:32:45.791Z,30.02
2022-10-30T17:35:35.605Z,23.90
2022-10-30T17:38:24.255Z,33.50
2022-10-30T17:41:14.386Z,32.03
2022-10-30T17:44:02.218Z,32.10
2022-10-30T17:46:51.000Z,34.85
2022-10-30T17:49:38.105Z,24.95
2022-10-30T17:52:25.929Z,20.55
2022-10-30T17:55:26.905Z,26.45
2022-10-30T17:58:14.241Z,21.08
2022-10-30T18:01:03.249Z,24.20
2022-10-30T18:03:50.812Z,22.17
2022-10-30T18:06:37.895Z,22.42
2022-10-30T18:09:24.805Z,22.30
2022-10-30T18:12:15.122Z,22.02
2022-10-30T18:15:12.922Z,28.00
2022-10-30T18:18:00.307Z,22.85
2022-10-30T18:20:47.096Z,25.80
2022-10-30T18:26:41.304Z,15.45
2022-10-30T18:29:29.895Z,24.50
2022-10-30T18:32:17.251Z,19.98
2022-10-30T18:35:13.845Z,14.10
2022-10-30T18:38:01.573Z,18.40
2022-10-30T18:40:50.682Z,18.85
2022-10-30T18:43:37.457Z,25.52
2022-10-30T18:46:26.142Z,16.73
2022-10-30T18:49:13.535Z,14.80
2022-10-30T18:52:00.506Z,15.18
2022-10-30T18:54:47.492Z,17.00
2022-10-30T18:57:34.607Z,10.90
2022-10-30T19:00:25.045Z,12.63
2022-10-30T19:03:13.332Z,16.52
2022-10-30T19:06:00.382Z,13.00
2022-10-30T19:08:48.509Z,16.50
2022-10-30T19:11:38.273Z,16.52
2022-10-30T19:14:26.448Z,21.73
2022-10-30T19:17:13.794Z,17.60
2022-10-30T19:20:02.541Z,20.65
2022-10-30T19:22:49.817Z,21.35
2022-10-30T19:25:37.419Z,19.63
2022-10-30T19:28:25.736Z,18.48
2022-10-30T19:31:16.287Z,23.65
2022-10-30T19:34:04.275Z,18.85
2022-10-30T19:36:52.773Z,17.70
2022-10-30T19:39:39.859Z,19.50
2022-10-30T19:42:27.018Z,17.77
2022-10-30T19:45:14.754Z,17.50
2022-10-30T19:48:12.338Z,21.27
2022-10-30T19:50:59.498Z,16.77
2022-10-30T19:53:48.069Z,21.67
2022-10-30T19:56:35.407Z,20.63
2022-10-30T19:59:22.833Z,21.45
2022-10-30T20:02:12.535Z,18.88
2022-10-30T20:04:59.689Z,22.15
2022-10-30T20:07:58.958Z,21.58
2022-10-30T20:10:51.968Z,22.00
2022-10-30T20:13:39.421Z,20.13
2022-10-30T20:16:26.532Z,18.60
2022-10-30T20:19:28.805Z,20.48
2022-10-30T20:22:15.777Z,17.85
2022-10-30T20:25:02.875Z,20.70
2022-10-30T20:30:45.587Z,19.02
2022-10-30T20:33:32.939Z,18.80
2022-10-30T20:36:20.043Z,24.95
2022-10-30T20:39:07.249Z,21.30
2022-10-30T20:41:54.369Z,20.23
2022-10-30T20:44:42.861Z,22.55
2022-10-30T20:47:30.256Z,20.30
2022-10-30T20:50:18.785Z,24.23
2022-10-30T20:53:06.646Z,19.80
2022-10-30T20:55:54.083Z,22.30
2022-10-30T20:58:41.730Z,20.65
2022-10-30T21:01:30.141Z,19.98
2022-10-30T21:04:17.368Z,20.13
2022-10-30T21:07:04.716Z,23.05
2022-10-30T21:09:51.790Z,18.75
2022-10-30T21:12:38.785Z,22.13
2022-10-30T21:15:26.382Z,20.75
2022-10-30T21:18:15.130Z,20.77
2022-10-30T21:21:02.534Z,19.27
2022-10-30T21:23:54.065Z,23.67
2022-10-30T21:26:41.410Z,23.20
2022-10-30T21:29:31.261Z,21.48
2022-10-30T21:32:21.339Z,20.15
2022-10-30T21:35:10.419Z,22.17
2022-10-30T21:37:57.429Z,18.35
2022-10-30T21:40:44.495Z,17.85
2022-10-30T21:43:31.528Z,23.45
2022-10-30T21:46:18.886Z,25.02
2022-10-30T21:49:07.825Z,24.30
2022-10-30T21:51:56.341Z,26.13
2022-10-30T21:54:43.427Z,22.27
2022-10-30T21:57:30.717Z,26.70
2022-10-30T22:00:18.312Z,21.90
2022-10-30T22:03:05.337Z,20.13
2022-10-30T22:05:52.691Z,18.58
2022-10-30T22:08:41.961Z,21.65
2022-10-30T22:11:29.604Z,22.50
2022-10-30T22:14:16.842Z,24.55
2022-10-30T22:17:03.802Z,21.33
2022-10-30T22:19:50.647Z,22.27
2022-10-30T22:22:37.944Z,19.98
2022-10-30T22:25:26.729Z,21.00
2022-10-30T22:28:13.626Z,19.92
2022-10-30T22:31:04.826Z,23.42
2022-10-30T22:33:52.467Z,22.85
2022-10-30T22:36:39.629Z,20.80
2022-10-30T22:39:26.906Z,24.45
2022-10-30T22:42:15.243Z,25.45
2022-10-30T22:45:02.297Z,17.85
2022-10-30T22:47:49.652Z,21.67
2022-10-30T22:50:36.901Z,18.97
2022-10-30T22:53:24.221Z,19.70
2022-10-30T22:56:17.665Z,18.02
2022-10-30T22:59:08.594Z,18.95
2022-10-30T23:01:55.667Z,18.55
2022-10-30T23:04:42.885Z,17.52
2022-10-30T23:07:30.181Z,19.08
2022-10-30T23:10:17.538Z,17.90
2022-10-30T23:13:04.813Z,15.63
2022-10-30T23:15:56.236Z,17.67
2022-10-30T23:18:46.431Z,16.02
2022-10-30T23:21:33.884Z,19.95
2022-10-30T23:24:21.046Z,17.65
2022-10-30T23:27:08.362Z,20.58
2022-10-30T23:29:55.531Z,17.95
2022-10-30T23:32:44.023Z,18.48
2022-10-30T23:35:31.180Z,20.30
2022-10-30T23:38:18.465Z,14.98
2022-10-30T23:41:05.696Z,15.73
2022-10-30T23:43:54.511Z,20.67
2022-10-30T23:46:42.475Z,18.67
2022-10-30T23:49:34.007Z,19.77
2022-10-30T23:52:21.315Z,17.88
2022-10-30T23:55:09.747Z,24.13
2022-10-30T23:57:57.178Z,20.30
